Portada
METAR-TAF:

METAR-TAF

Aeroports :

Aeroport de Rabat

Rabat, Marroc

latitud: 34-03N, longitud: 006-46W, altitud: 84 m

Observació

L'informe es va fer fa 30 minuts, a les 11:00 UTC
Vent 6 kt del Nord/Nord-Oest, variant entre Oest i Nord/Nord-Est
Temperatura 24°C
Humitat 74%
Pressió 1016 hPa
Visibilitat: 8000 m
Escasses núvols a una alçada de 1000 ft
Núvols disperses a una alçada de 1500 ft

METAR: GMME 051100Z 34006KT 280V030 8000 FEW010 SCT015 24/19 Q1016 NOSIG

Hora: 12:30 (11:30 UTC)

Pronòstic

L'informe es va fer fa 6 hores i 30 minuts, a les 05:00 UTC
Pronòstic vàlid del 05 a les 06 UTC al 06 a les 12 UTC
Vent 10 kt del Nord-Oest
Visibilitat 10 km o més
Núvols disperses a una alçada de 1300 ft
Núvols disperses a una alçada de 1600 ft
Temporalment
l' 05 a les 18 UTC al 05 a les 24 UTC
Vent 5 kt del Oest/Sud-Oest
Visibilitat: 6000 m

TAF: GMME 050500Z 0506/0612 32010KT 9999 SCT013 SCT016 TEMPO 0518/0524 24005KT 6000

Observacions i pronòstics meteorològics de més de 4000 aeroports (METAR i TAF).

Les estacions disponibles són els punts grocs i vermells al mapa.

Posi el ratolí al punt desitjat per veure el nom de l'estació.

Feu clic per veure les observacions i els pronòstics meteorològics.

Per canviar el mapa: feu clic els botons verds amb una creu de color negre per apropar; al botó verd amb un guió per allunyar la imatge; o en les fletxes verdes per a mapes adjacents.


METAR-TAF: